Diamond Bar, CA (91765)

5:38 AM PDT on October 02, 2014 (GMT -0700)
Canon Lane Station | Change Station
CLOSE
Current Station
Personal Weather Station
Location: Chino Hills, CA
Elevation: 1166 ft
Nearby Weather Stations
Active Advisory: Special Statement

Elev 1166 ft 33.96 °N, 117.77 °W | Updated 2 minutes ago

Clear
Clear
74.1 °F
Feels Like 76 °F
N
5.0
Wind Variable Wind from ESE
Gusts 10.0 mph

Today
High -- | Low -- °F
--% Chance of Precip.
Yesterday
High -- | Low -- °F
Precip. -- in
6:46 AM 6:34 PM
First Quarter, 58% visible
Pressure 29.91 in
Visibility 6.0 miles
Clouds Clear
Heat Index 76 °F
Dew Point 36 °F
Humidity 25%
Rainfall 0.00 in
Snow Depth 0 in , 0 in , 0 in
UV 0.0 out of 12
Pollen 6.00 out of 12
Ozone Good
Flu Activity Not available.
METAR KCNO 021153Z AUTO 00000KT 6SM BR CLR 14/12 A2993 RMK AO2 SLP129 T01390122 10178 20128 53005

More Conditions Fewer Conditions

Pressure 29.91 in
Visibility 6.0 miles
Clouds Clear
Heat Index 76 °F
Dew Point 36 °F
Humidity 25%
Rainfall 0.00 in
Snow Depth 0 in , 0 in , 0 in
UV 0.0 out of 12
Pollen 6.00 out of 12
Ozone Good
Flu Activity Not available.
METAR KCNO 021153Z AUTO 00000KT 6SM BR CLR 14/12 A2993 RMK AO2 SLP129 T01390122 10178 20128 53005

More Conditions Fewer Conditions

10-Day Weather Forecast

Almanac

Astronomy

Oct. 02, 2014 Rise Set
Actual Time 6:46 AM PDT 6:34 PM PDT
Civil Twilight 6:21 AM PDT 6:58 PM PDT
Nautical Twilight 5:52 AM PDT 7:27 PM PDT
Astronomical Twilight 5:23 AM PDT 7:56 PM PDT
Moon 2:30 PM PDT 12:23 AM PDT
Length of Visible Light 12h 37m
Length of Day
11h 47m
Tomorrow will be 2m 5s shorter.
First Quarter, 58% of the Moon is Illuminated
Today
First Quarter
Oct 8
Full
Oct 15
Last Quarter
Oct 23
New
Oct 30
First Quarter

Today's Extremes

State Highs State Lows

Community

WunderPhotos

Upload Photos

1,758,223 photos uploaded!

WunderBlogs® & News

Nearby

Air Quality

  Air Quality AQ Index Pollutant
Yesterday Good
OZONE
Current Good
OZONE
Thursday Good
PM10
Thursday Good
OZONE
Thursday Good
CO
Thursday Good
NO2

Snow Depth

Station Depth Elevation
Monitor Pass 0 in 8350 ft
Blue Lakes 0 in 8000 ft
Poison Flat 0 in 7900 ft
Rubicon #2 1 in 7500 ft
Summit Meadow 1 in 9122 ft

Earthquake Activity

City Distance Mag. Time & Date
Avalon, California 65 miles 3.2 10:12 PM PDT
2014-10-01
Avalon, California 65 miles 2.6 1:28 PM PDT
2014-09-30
Minimum magnitude displayed is 2.5.

Coastal Water Temperatures

Place Temperature
Santa Monica Pier 69.1 °F
Los Angeles, CA 68.0 °F
La Jolla, CA 69.1 °F

Nearby Weather Stations